« Back
NWS Peachtree City, Ga » Text Product » AHN Terminal Aerodrome Forecast


Printer-friendly Version
Current Version              Previous Versions:   1  2  3  4  5  6  7  8  9  

Terminal Aerodrome Forecast

655
FTUS42 KFFC 010813 AAB
TAFAHN
TAF AMD
KAHN 010813Z 0108/0206 VRB03KT 6SM BR SCT006 BKN008
      TEMPO 0108/0111 4SM BR OVC003
     FM011400 24004KT P6SM FEW040
     FM011800 25005KT P6SM SCT050
     FM012300 23003KT P6SM FEW250
     FM020200 00000KT P6SM FEW250=



USA.gov is the U.S. government's official web portal to all federal, state and local government web resources and services.